createdAt,value
2019-05-28T00:00:38.019Z,0.00
2019-05-28T00:01:37.945Z,0.00
2019-05-28T00:02:37.866Z,0.00
2019-05-28T00:03:37.786Z,0.00
2019-05-28T00:04:37.709Z,0.00
2019-05-28T00:05:37.638Z,0.00
2019-05-28T00:06:37.558Z,0.00
2019-05-28T00:07:37.477Z,0.00
2019-05-28T00:08:37.399Z,0.00
2019-05-28T00:09:37.328Z,0.00
2019-05-28T00:10:37.244Z,0.00
2019-05-28T00:11:37.169Z,0.00
2019-05-28T00:12:37.096Z,0.00
2019-05-28T00:13:37.015Z,0.00
2019-05-28T00:14:36.939Z,0.00
2019-05-28T00:15:36.861Z,0.00
2019-05-28T00:16:36.783Z,0.00
2019-05-28T00:17:36.704Z,0.00
2019-05-28T00:18:36.629Z,0.00
2019-05-28T00:19:36.550Z,0.00
2019-05-28T00:20:36.476Z,0.00
2019-05-28T00:21:36.402Z,0.00
2019-05-28T00:22:36.320Z,0.00
2019-05-28T00:23:36.251Z,0.00
2019-05-28T00:24:36.171Z,0.00
2019-05-28T00:25:36.089Z,0.00
2019-05-28T00:26:36.086Z,0.00
2019-05-28T00:27:35.940Z,0.00
2019-05-28T00:28:35.857Z,0.00
2019-05-28T00:29:35.782Z,0.00
2019-05-28T00:30:35.706Z,0.00
2019-05-28T00:31:35.624Z,0.00
2019-05-28T00:32:35.552Z,0.00
2019-05-28T00:33:35.474Z,0.00
2019-05-28T00:34:35.395Z,0.00
2019-05-28T00:35:35.318Z,0.00
2019-05-28T00:36:35.242Z,0.00
2019-05-28T00:37:35.162Z,0.00
2019-05-28T00:38:35.087Z,0.00
2019-05-28T00:39:35.009Z,0.00
2019-05-28T00:40:34.932Z,0.00
2019-05-28T00:41:34.859Z,0.00
2019-05-28T00:42:34.777Z,0.00
2019-05-28T00:43:34.701Z,0.00
2019-05-28T00:44:34.624Z,0.00
2019-05-28T00:45:34.545Z,0.00
2019-05-28T00:46:34.467Z,0.00
2019-05-28T00:47:34.392Z,0.00
2019-05-28T00:48:34.317Z,0.00
2019-05-28T00:49:34.239Z,0.00
2019-05-28T00:50:34.158Z,0.00
2019-05-28T00:51:34.082Z,0.00
2019-05-28T00:52:34.006Z,0.00
2019-05-28T00:53:33.927Z,0.00
2019-05-28T00:54:33.849Z,0.00
2019-05-28T00:55:33.774Z,0.00
2019-05-28T00:56:33.694Z,0.00
2019-05-28T00:57:33.619Z,0.00
2019-05-28T00:58:33.538Z,0.00
2019-05-28T00:59:33.463Z,0.00
2019-05-28T01:00:36.883Z,0.00
2019-05-28T01:01:33.306Z,0.00
2019-05-28T01:02:33.229Z,0.00
2019-05-28T01:03:33.154Z,0.00
2019-05-28T01:04:33.081Z,0.00
2019-05-28T01:05:32.996Z,0.00
2019-05-28T01:06:32.917Z,0.00
2019-05-28T01:07:32.839Z,0.00
2019-05-28T01:08:32.763Z,0.00
2019-05-28T01:09:32.685Z,0.00
2019-05-28T01:10:32.611Z,0.00
2019-05-28T01:11:32.528Z,0.00
2019-05-28T01:12:32.452Z,0.00
2019-05-28T01:13:32.374Z,0.00
2019-05-28T01:14:32.298Z,0.00
2019-05-28T01:15:32.219Z,0.00
2019-05-28T01:16:32.140Z,0.00
2019-05-28T01:17:32.065Z,0.00
2019-05-28T01:18:31.985Z,0.00
2019-05-28T01:19:31.908Z,0.00
2019-05-28T01:20:31.829Z,0.00
2019-05-28T01:21:31.754Z,0.00
2019-05-28T01:22:31.682Z,0.00
2019-05-28T01:23:31.605Z,0.00
2019-05-28T01:24:31.524Z,0.00
2019-05-28T01:25:31.441Z,0.00
2019-05-28T01:26:31.363Z,0.00
2019-05-28T01:27:31.284Z,0.00
2019-05-28T01:28:31.210Z,0.00
2019-05-28T01:29:31.130Z,0.00
2019-05-28T01:30:31.055Z,0.00
2019-05-28T01:31:30.975Z,0.00
2019-05-28T01:32:30.900Z,0.00
2019-05-28T01:33:30.819Z,0.00
2019-05-28T01:34:30.744Z,0.00
2019-05-28T01:35:30.664Z,0.00
2019-05-28T01:36:30.587Z,0.00
2019-05-28T01:37:30.509Z,0.00
2019-05-28T01:38:30.432Z,0.00
2019-05-28T01:39:30.359Z,0.00
2019-05-28T01:40:30.278Z,0.00
2019-05-28T01:41:30.202Z,0.00
2019-05-28T01:42:30.122Z,0.00
2019-05-28T01:43:30.046Z,0.00
2019-05-28T01:44:29.968Z,0.00
2019-05-28T01:45:29.889Z,0.00
2019-05-28T01:46:29.813Z,0.00
2019-05-28T01:47:29.736Z,0.00
2019-05-28T01:48:29.665Z,0.00
2019-05-28T01:49:29.581Z,0.00
2019-05-28T01:50:29.504Z,0.00
2019-05-28T01:51:29.428Z,0.00
2019-05-28T01:52:29.349Z,0.00
2019-05-28T01:53:29.274Z,0.00
2019-05-28T01:54:29.195Z,0.00
2019-05-28T01:55:29.118Z,0.00
2019-05-28T01:56:29.040Z,0.00
2019-05-28T01:57:28.963Z,0.00
2019-05-28T01:58:28.886Z,0.00
2019-05-28T01:59:28.810Z,0.00
2019-05-28T02:00:28.733Z,0.00
2019-05-28T02:01:28.653Z,0.00
2019-05-28T02:02:28.579Z,0.00
2019-05-28T02:03:28.499Z,0.00
2019-05-28T02:04:28.426Z,0.00
2019-05-28T02:05:28.345Z,0.00
2019-05-28T02:06:28.267Z,0.00
2019-05-28T02:07:28.189Z,0.00
2019-05-28T02:08:28.115Z,0.00
2019-05-28T02:09:28.032Z,0.00
2019-05-28T02:10:27.957Z,0.00
2019-05-28T02:11:27.879Z,0.00
2019-05-28T02:12:27.804Z,0.00
2019-05-28T02:13:27.726Z,0.00
2019-05-28T02:14:27.650Z,0.00
2019-05-28T02:15:27.573Z,0.00
2019-05-28T02:16:27.495Z,0.00
2019-05-28T02:17:27.420Z,0.00
2019-05-28T02:18:27.342Z,0.00
2019-05-28T02:19:27.267Z,0.00
2019-05-28T02:20:27.184Z,0.00
2019-05-28T02:21:27.109Z,0.00
2019-05-28T02:22:27.032Z,0.00
2019-05-28T02:23:26.957Z,0.00
2019-05-28T02:24:26.875Z,0.00
2019-05-28T02:25:26.797Z,0.00
2019-05-28T02:26:26.721Z,0.00
2019-05-28T02:27:26.644Z,0.00
2019-05-28T02:28:26.565Z,0.00
2019-05-28T02:29:26.489Z,0.00
2019-05-28T02:30:26.413Z,0.00
2019-05-28T02:31:28.055Z,0.00
2019-05-28T02:32:26.256Z,0.00
2019-05-28T02:33:26.181Z,0.00
2019-05-28T02:34:26.105Z,0.00
2019-05-28T02:35:26.024Z,0.00
2019-05-28T02:36:25.949Z,0.00
2019-05-28T02:37:25.869Z,0.00
2019-05-28T02:38:25.793Z,0.00
2019-05-28T02:39:25.715Z,0.00
2019-05-28T02:40:25.638Z,0.00
2019-05-28T02:41:25.561Z,0.00
2019-05-28T02:42:25.487Z,0.00
2019-05-28T02:43:25.407Z,0.00
2019-05-28T02:44:25.329Z,0.00
2019-05-28T02:45:25.251Z,0.00
2019-05-28T02:46:25.219Z,0.00
2019-05-28T02:47:25.096Z,0.00
2019-05-28T02:48:25.021Z,0.00
2019-05-28T02:49:24.941Z,0.00
2019-05-28T02:50:24.864Z,0.00
2019-05-28T02:51:24.786Z,0.00
2019-05-28T02:52:24.710Z,0.00
2019-05-28T02:53:24.630Z,0.00
2019-05-28T02:54:24.551Z,0.00
2019-05-28T02:55:24.478Z,0.00
2019-05-28T02:56:24.400Z,0.00
2019-05-28T02:57:24.323Z,0.00
2019-05-28T02:58:24.246Z,0.00
2019-05-28T02:59:24.168Z,0.00
2019-05-28T03:00:24.089Z,4.00
2019-05-28T03:01:24.011Z,4.00
2019-05-28T03:02:23.934Z,4.00
2019-05-28T03:03:23.856Z,4.00
2019-05-28T03:04:23.778Z,0.00
2019-05-28T03:05:23.705Z,4.00
2019-05-28T03:06:23.623Z,4.00
2019-05-28T03:07:23.551Z,8.00
2019-05-28T03:08:23.470Z,8.00
2019-05-28T03:09:23.391Z,8.00
2019-05-28T03:10:23.314Z,8.00
2019-05-28T03:11:23.235Z,8.00
2019-05-28T03:12:23.158Z,12.00
2019-05-28T03:13:23.080Z,12.00
2019-05-28T03:14:23.001Z,12.00
2019-05-28T03:15:22.929Z,12.00
2019-05-28T03:16:22.851Z,16.00
2019-05-28T03:17:22.772Z,20.00
2019-05-28T03:18:22.692Z,16.00
2019-05-28T03:19:22.623Z,20.00
2019-05-28T03:20:22.537Z,20.00
2019-05-28T03:21:22.458Z,20.00
2019-05-28T03:22:22.380Z,20.00
2019-05-28T03:23:22.306Z,16.00
2019-05-28T03:24:22.225Z,20.00
2019-05-28T03:25:22.158Z,24.00
2019-05-28T03:26:23.738Z,20.00
2019-05-28T03:27:21.994Z,20.00
2019-05-28T03:28:21.917Z,20.00
2019-05-28T03:29:21.838Z,20.00
2019-05-28T03:30:21.759Z,24.00
2019-05-28T03:31:21.684Z,24.00
2019-05-28T03:32:21.605Z,20.00
2019-05-28T03:33:21.526Z,24.00
2019-05-28T03:34:21.469Z,24.00
2019-05-28T03:35:21.374Z,28.00
2019-05-28T03:36:21.303Z,28.00
2019-05-28T03:37:21.216Z,32.00
2019-05-28T03:38:21.137Z,36.00
2019-05-28T03:39:21.061Z,36.00
2019-05-28T03:40:20.986Z,40.00
2019-05-28T03:41:20.904Z,44.00
2019-05-28T03:42:20.864Z,56.00
2019-05-28T03:43:20.751Z,64.00
2019-05-28T03:44:20.671Z,68.00
2019-05-28T03:45:20.599Z,72.00
2019-05-28T03:46:20.576Z,84.00
2019-05-28T03:47:20.442Z,92.00
2019-05-28T03:48:20.363Z,100.00
2019-05-28T03:49:20.286Z,104.00
2019-05-28T03:50:20.206Z,100.00
2019-05-28T03:51:20.131Z,104.00
2019-05-28T03:52:20.052Z,112.00
2019-05-28T03:53:19.973Z,120.00
2019-05-28T03:54:19.902Z,120.00
2019-05-28T03:55:19.818Z,132.00
2019-05-28T03:56:19.740Z,148.00
2019-05-28T03:57:19.663Z,156.00
2019-05-28T03:58:19.586Z,156.00
2019-05-28T03:59:19.511Z,172.00
2019-05-28T04:00:19.432Z,160.00
2019-05-28T04:01:19.352Z,172.00
2019-05-28T04:02:23.720Z,168.00
2019-05-28T04:03:19.200Z,180.00
2019-05-28T04:04:19.120Z,164.00
2019-05-28T04:05:19.040Z,164.00
2019-05-28T04:06:18.963Z,156.00
2019-05-28T04:07:18.925Z,148.00
2019-05-28T04:08:18.809Z,152.00
2019-05-28T04:09:18.730Z,164.00
2019-05-28T04:10:18.650Z,156.00
2019-05-28T04:11:18.575Z,156.00
2019-05-28T04:12:18.496Z,164.00
2019-05-28T04:13:18.419Z,180.00
2019-05-28T04:14:18.344Z,184.00
2019-05-28T04:15:18.267Z,176.00
2019-05-28T04:16:18.199Z,184.00
2019-05-28T04:17:18.108Z,180.00
2019-05-28T04:18:18.033Z,188.00
2019-05-28T04:19:17.951Z,180.00
2019-05-28T04:20:17.887Z,176.00
2019-05-28T04:21:17.806Z,180.00
2019-05-28T04:22:17.720Z,196.00
2019-05-28T04:23:17.642Z,196.00
2019-05-28T04:24:17.562Z,188.00
2019-05-28T04:25:17.484Z,188.00
2019-05-28T04:26:17.410Z,188.00
2019-05-28T04:27:17.331Z,180.00
2019-05-28T04:28:17.251Z,184.00
2019-05-28T04:29:17.177Z,168.00
2019-05-28T04:30:17.098Z,176.00
2019-05-28T04:31:17.018Z,208.00
2019-05-28T04:32:16.943Z,208.00
2019-05-28T04:33:16.861Z,224.00
2019-05-28T04:34:16.783Z,236.00
2019-05-28T04:35:16.710Z,260.00
2019-05-28T04:36:16.633Z,304.00
2019-05-28T04:37:16.552Z,316.00
2019-05-28T04:38:16.472Z,316.00
2019-05-28T04:39:16.401Z,304.00
2019-05-28T04:40:16.319Z,296.00
2019-05-28T04:41:16.247Z,280.00
2019-05-28T04:42:16.161Z,248.00
2019-05-28T04:43:16.082Z,240.00
2019-05-28T04:44:16.006Z,208.00
2019-05-28T04:45:15.930Z,192.00
2019-05-28T04:46:15.848Z,192.00
2019-05-28T04:47:15.776Z,208.00
2019-05-28T04:48:15.695Z,236.00
2019-05-28T04:49:15.615Z,260.00
2019-05-28T04:50:15.549Z,312.00
2019-05-28T04:51:15.461Z,352.00
2019-05-28T04:52:15.381Z,356.00
2019-05-28T04:53:15.305Z,372.00
2019-05-28T04:54:15.230Z,424.00
2019-05-28T04:55:15.153Z,436.00
2019-05-28T04:56:15.073Z,428.00
2019-05-28T04:57:14.992Z,452.00
2019-05-28T04:58:14.915Z,460.00
2019-05-28T04:59:14.841Z,464.00
2019-05-28T05:00:14.760Z,468.00
2019-05-28T05:01:14.683Z,472.00
2019-05-28T05:02:14.603Z,472.00
2019-05-28T05:03:14.528Z,492.00
2019-05-28T05:04:14.451Z,520.00
2019-05-28T05:05:14.386Z,556.00
2019-05-28T05:06:14.296Z,596.00
2019-05-28T05:07:14.214Z,596.00
2019-05-28T05:08:14.140Z,580.00
2019-05-28T05:09:14.060Z,552.00
2019-05-28T05:10:13.983Z,516.00
2019-05-28T05:11:13.904Z,480.00
2019-05-28T05:12:13.852Z,488.00
2019-05-28T05:13:13.746Z,480.00
2019-05-28T05:14:13.677Z,468.00
2019-05-28T05:15:13.739Z,432.00
2019-05-28T05:16:13.515Z,424.00
2019-05-28T05:17:13.436Z,412.00
2019-05-28T05:18:13.357Z,384.00
2019-05-28T05:19:13.280Z,372.00
2019-05-28T05:20:13.204Z,376.00
2019-05-28T05:21:13.123Z,416.00
2019-05-28T05:22:13.048Z,444.00
2019-05-28T05:23:12.969Z,444.00
2019-05-28T05:24:12.894Z,472.00
2019-05-28T05:25:12.813Z,508.00
2019-05-28T05:26:12.735Z,504.00
2019-05-28T05:27:12.673Z,508.00
2019-05-28T05:28:12.582Z,572.00
2019-05-28T05:29:12.530Z,648.00
2019-05-28T05:30:12.425Z,704.00
2019-05-28T05:31:12.348Z,620.00
2019-05-28T05:32:12.272Z,548.00
2019-05-28T05:33:19.699Z,540.00
2019-05-28T05:34:12.116Z,616.00
2019-05-28T05:35:12.038Z,648.00
2019-05-28T05:36:11.962Z,648.00
2019-05-28T05:37:11.879Z,708.00
2019-05-28T05:38:11.805Z,844.00
2019-05-28T05:39:11.729Z,852.00
2019-05-28T05:40:11.659Z,768.00
2019-05-28T05:41:11.576Z,752.00
2019-05-28T05:42:11.508Z,760.00
2019-05-28T05:43:11.417Z,812.00
2019-05-28T05:44:11.339Z,916.00
2019-05-28T05:45:11.262Z,996.00
2019-05-28T05:46:11.181Z,1052.00
2019-05-28T05:47:11.152Z,1008.00
2019-05-28T05:48:11.029Z,952.00
2019-05-28T05:49:10.975Z,1040.00
2019-05-28T05:50:10.883Z,1020.00
2019-05-28T05:51:10.799Z,1072.00
2019-05-28T05:52:10.724Z,1124.00
2019-05-28T05:53:10.647Z,1096.00
2019-05-28T05:54:10.568Z,1172.00
2019-05-28T05:55:10.483Z,1116.00
2019-05-28T05:56:10.410Z,1144.00
2019-05-28T05:57:10.332Z,1200.00
2019-05-28T05:58:10.253Z,1272.00
2019-05-28T05:59:10.174Z,1252.00
2019-05-28T06:00:11.610Z,1300.00
2019-05-28T06:01:10.043Z,1244.00
2019-05-28T06:02:09.942Z,1332.00
2019-05-28T06:03:09.863Z,1360.00
2019-05-28T06:04:09.789Z,1360.00
2019-05-28T06:05:09.713Z,1388.00
2019-05-28T06:06:09.654Z,1396.00
2019-05-28T06:07:09.559Z,1396.00
2019-05-28T06:08:09.484Z,1360.00
2019-05-28T06:09:09.400Z,1356.00
2019-05-28T06:10:09.324Z,1356.00
2019-05-28T06:11:09.246Z,1224.00
2019-05-28T06:12:09.172Z,1304.00
2019-05-28T06:13:09.091Z,1336.00
2019-05-28T06:14:09.019Z,1380.00
2019-05-28T06:15:08.937Z,1316.00
2019-05-28T06:16:08.861Z,1260.00
2019-05-28T06:17:08.787Z,1412.00
2019-05-28T06:18:08.713Z,1408.00
2019-05-28T06:19:08.634Z,1492.00
2019-05-28T06:20:08.550Z,1520.00
2019-05-28T06:21:16.487Z,1552.00
2019-05-28T06:22:08.394Z,1512.00
2019-05-28T06:23:08.326Z,1644.00
2019-05-28T06:24:08.242Z,1600.00
2019-05-28T06:25:08.163Z,1632.00
2019-05-28T06:26:08.086Z,1644.00
2019-05-28T06:27:08.009Z,1688.00
2019-05-28T06:28:07.932Z,1712.00
2019-05-28T06:29:07.855Z,1784.00
2019-05-28T06:30:07.803Z,1820.00
2019-05-28T06:31:07.700Z,1900.00
2019-05-28T06:32:07.632Z,2044.00
2019-05-28T06:33:07.559Z,2056.00
2019-05-28T06:34:07.468Z,2172.00
2019-05-28T06:35:07.391Z,2228.00
2019-05-28T06:36:07.332Z,2284.00
2019-05-28T06:37:07.238Z,2316.00
2019-05-28T06:38:07.162Z,2380.00
2019-05-28T06:39:07.083Z,2508.00
2019-05-28T06:40:07.008Z,2596.00
2019-05-28T06:41:06.930Z,2576.00
2019-05-28T06:42:06.853Z,2588.00
2019-05-28T06:43:06.776Z,2696.00
2019-05-28T06:44:06.700Z,2948.00
2019-05-28T06:45:06.624Z,3052.00
2019-05-28T06:46:06.540Z,3108.00
2019-05-28T06:47:06.465Z,3060.00
2019-05-28T06:48:06.391Z,2868.00
2019-05-28T06:49:06.309Z,2640.00
2019-05-28T06:50:06.233Z,2688.00
2019-05-28T06:51:06.167Z,3156.00
2019-05-28T06:52:06.081Z,3572.00
2019-05-28T06:53:06.003Z,3728.00
2019-05-28T06:54:05.928Z,3828.00
2019-05-28T06:55:05.848Z,3736.00
2019-05-28T06:56:05.772Z,3500.00
2019-05-28T06:57:21.746Z,3716.00
2019-05-28T06:58:05.617Z,3844.00
2019-05-28T06:59:05.677Z,4004.00
2019-05-28T07:00:05.463Z,4012.00
2019-05-28T07:01:05.515Z,3976.00
2019-05-28T07:02:05.311Z,4016.00
2019-05-28T07:03:05.235Z,3996.00
2019-05-28T07:04:13.989Z,3968.00
2019-05-28T07:05:05.077Z,4040.00
2019-05-28T07:06:07.550Z,4008.00
2019-05-28T07:07:04.924Z,4044.00
2019-05-28T07:08:04.850Z,4020.00
2019-05-28T07:09:04.772Z,4028.00
2019-05-28T07:10:04.698Z,3880.00
2019-05-28T07:11:04.631Z,4364.00
2019-05-28T07:12:04.542Z,4340.00
2019-05-28T07:13:04.468Z,4228.00
2019-05-28T07:14:04.391Z,4108.00
2019-05-28T07:15:04.329Z,3960.00
2019-05-28T07:16:04.232Z,3816.00
2019-05-28T07:17:04.187Z,3720.00
2019-05-28T07:18:04.084Z,3516.00
2019-05-28T07:19:04.086Z,3068.00
2019-05-28T07:20:03.927Z,2972.00
2019-05-28T07:21:03.850Z,2768.00
2019-05-28T07:22:03.772Z,2656.00
2019-05-28T07:23:03.696Z,2644.00
2019-05-28T07:24:05.124Z,2768.00
2019-05-28T07:25:03.538Z,2992.00
2019-05-28T07:26:03.464Z,3464.00
2019-05-28T07:27:03.471Z,4104.00
2019-05-28T07:28:11.106Z,4572.00
2019-05-28T07:29:03.234Z,4812.00
2019-05-28T07:30:03.156Z,4872.00
2019-05-28T07:31:03.090Z,4452.00
2019-05-28T07:32:03.003Z,4560.00
2019-05-28T07:33:02.966Z,5028.00
2019-05-28T07:34:02.848Z,5544.00
2019-05-28T07:35:02.770Z,5596.00
2019-05-28T07:36:02.692Z,5536.00
2019-05-28T07:37:02.621Z,5624.00
2019-05-28T07:38:02.545Z,5680.00
2019-05-28T07:39:02.462Z,5672.00
2019-05-28T07:40:02.383Z,5644.00
2019-05-28T07:41:02.324Z,5612.00
2019-05-28T07:42:02.259Z,5572.00
2019-05-28T07:43:02.153Z,5524.00
2019-05-28T07:44:02.107Z,5468.00
2019-05-28T07:45:02.224Z,5384.00
2019-05-28T07:46:01.923Z,5284.00
2019-05-28T07:47:01.857Z,5176.00
2019-05-28T07:48:01.775Z,5076.00
2019-05-28T07:49:01.692Z,5004.00
2019-05-28T07:50:01.615Z,4932.00
2019-05-28T07:51:01.537Z,4880.00
2019-05-28T07:52:01.463Z,4868.00
2019-05-28T07:53:01.387Z,4868.00
2019-05-28T07:54:01.306Z,4880.00
2019-05-28T07:55:01.234Z,4908.00
2019-05-28T07:56:01.160Z,4932.00
2019-05-28T07:57:01.075Z,4888.00
2019-05-28T07:58:00.999Z,4920.00
2019-05-28T07:59:00.926Z,4908.00
2019-05-28T08:00:05.369Z,4904.00
2019-05-28T08:01:00.769Z,4940.00
2019-05-28T08:02:00.753Z,4968.00
2019-05-28T08:03:00.613Z,4992.00
2019-05-28T08:04:00.538Z,4884.00
2019-05-28T08:05:00.461Z,5044.00
2019-05-28T08:06:00.385Z,5124.00
2019-05-28T08:07:00.318Z,5124.00
2019-05-28T08:08:00.232Z,5068.00
2019-05-28T08:09:00.157Z,5152.00
2019-05-28T08:10:00.077Z,5228.00
2019-05-28T08:11:00.003Z,5204.00
2019-05-28T08:11:59.930Z,4964.00
2019-05-28T08:12:59.848Z,5416.00
2019-05-28T08:13:59.768Z,5456.00
2019-05-28T08:14:59.694Z,5444.00
2019-05-28T08:16:16.926Z,5244.00
2019-05-28T08:16:59.544Z,5440.00
2019-05-28T08:17:59.470Z,5380.00
2019-05-28T08:18:59.386Z,5328.00
2019-05-28T08:19:59.312Z,5240.00
2019-05-28T08:20:59.233Z,5132.00
2019-05-28T08:21:59.283Z,5004.00
2019-05-28T08:22:59.083Z,4844.00
2019-05-28T08:23:59.006Z,4932.00
2019-05-28T08:24:58.926Z,5000.00
2019-05-28T08:26:01.824Z,5036.00
2019-05-28T08:26:58.772Z,5080.00
2019-05-28T08:28:16.480Z,5120.00
2019-05-28T08:28:59.684Z,5156.00
2019-05-28T08:29:58.548Z,5164.00
2019-05-28T08:31:14.181Z,5156.00
2019-05-28T08:31:58.388Z,5216.00
2019-05-28T08:32:58.323Z,5200.00
2019-05-28T08:33:58.234Z,5208.00
2019-05-28T08:35:05.394Z,5264.00
2019-05-28T08:35:58.085Z,5372.00
2019-05-28T08:37:05.923Z,5496.00
2019-05-28T08:37:57.931Z,5628.00
2019-05-28T08:38:57.855Z,5748.00
2019-05-28T08:39:57.775Z,5852.00
2019-05-28T08:40:57.697Z,5928.00
2019-05-28T08:41:57.620Z,5968.00
2019-05-28T08:42:57.784Z,5940.00
2019-05-28T08:43:57.468Z,5916.00
2019-05-28T08:44:57.395Z,5892.00
2019-05-28T08:45:57.319Z,5896.00
2019-05-28T08:46:57.237Z,5908.00
2019-05-28T08:47:57.164Z,5952.00
2019-05-28T08:48:57.083Z,5992.00
2019-05-28T08:49:57.014Z,6068.00
2019-05-28T08:50:56.932Z,6132.00
2019-05-28T08:51:56.857Z,6224.00
2019-05-28T08:52:56.781Z,6352.00
2019-05-28T08:53:56.704Z,6480.00
2019-05-28T08:54:56.630Z,6600.00
2019-05-28T08:55:56.552Z,6732.00
2019-05-28T08:56:56.472Z,6884.00
2019-05-28T08:57:56.396Z,7072.00
2019-05-28T08:58:56.322Z,7180.00
2019-05-28T08:59:56.249Z,7204.00
2019-05-28T09:00:56.172Z,7208.00
2019-05-28T09:01:56.092Z,7300.00
2019-05-28T09:02:56.015Z,7440.00
2019-05-28T09:03:55.941Z,7604.00
2019-05-28T09:04:55.878Z,7612.00
2019-05-28T09:05:55.790Z,7732.00
2019-05-28T09:06:55.722Z,7816.00
2019-05-28T09:07:55.636Z,7760.00
2019-05-28T09:08:55.558Z,7496.00
2019-05-28T09:09:55.488Z,7304.00
2019-05-28T09:10:55.413Z,7128.00
2019-05-28T09:11:55.328Z,7308.00
2019-05-28T09:12:55.254Z,7572.00
2019-05-28T09:13:55.178Z,7424.00
2019-05-28T09:14:56.641Z,7484.00
2019-05-28T09:15:55.025Z,7436.00
2019-05-28T09:16:54.951Z,7536.00
2019-05-28T09:17:54.873Z,7752.00
2019-05-28T09:18:54.798Z,8060.00
2019-05-28T09:19:54.722Z,7980.00
2019-05-28T09:20:54.649Z,8096.00
2019-05-28T09:21:54.566Z,7752.00
2019-05-28T09:22:54.496Z,7664.00
2019-05-28T09:23:54.414Z,7680.00
2019-05-28T09:24:54.339Z,7412.00
2019-05-28T09:25:54.263Z,7008.00
2019-05-28T09:26:54.189Z,6972.00
2019-05-28T09:27:54.111Z,7144.00
2019-05-28T09:28:54.050Z,7292.00
2019-05-28T09:29:55.456Z,7188.00
2019-05-28T09:30:53.882Z,7196.00
2019-05-28T09:31:53.809Z,7408.00
2019-05-28T09:32:53.755Z,7524.00
2019-05-28T09:33:53.651Z,7972.00
2019-05-28T09:34:53.580Z,8292.00
2019-05-28T09:36:07.392Z,8408.00
2019-05-28T09:36:53.426Z,8664.00
2019-05-28T09:37:53.355Z,8968.00
2019-05-28T09:38:53.276Z,9216.00
2019-05-28T09:39:53.205Z,9160.00
2019-05-28T09:40:53.125Z,7728.00
2019-05-28T09:41:53.053Z,8640.00
2019-05-28T09:42:52.973Z,9080.00
2019-05-28T09:43:52.900Z,9176.00
2019-05-28T09:44:52.821Z,9284.00
2019-05-28T09:45:52.748Z,9348.00
2019-05-28T09:46:52.671Z,8896.00
2019-05-28T09:47:55.126Z,8532.00
2019-05-28T09:48:52.517Z,9376.00
2019-05-28T09:49:56.138Z,9412.00
2019-05-28T09:50:52.368Z,9328.00
2019-05-28T09:51:52.294Z,9532.00
2019-05-28T09:52:55.040Z,9560.00
2019-05-28T09:53:52.142Z,9316.00
2019-05-28T09:54:52.063Z,8172.00
2019-05-28T09:55:51.989Z,8252.00
2019-05-28T09:56:51.917Z,8544.00
2019-05-28T09:57:51.844Z,8024.00
2019-05-28T09:58:51.761Z,8432.00
2019-05-28T09:59:51.690Z,8280.00
2019-05-28T10:00:57.966Z,7948.00
2019-05-28T10:01:51.537Z,7544.00
2019-05-28T10:02:51.530Z,6872.00
2019-05-28T10:03:51.449Z,6672.00
2019-05-28T10:04:51.766Z,7192.00
2019-05-28T10:06:06.852Z,7464.00
2019-05-28T10:06:51.162Z,7000.00
2019-05-28T10:07:51.087Z,6476.00
2019-05-28T10:08:51.017Z,5984.00
2019-05-28T10:09:50.936Z,5248.00
2019-05-28T10:10:50.863Z,4404.00
2019-05-28T10:11:50.788Z,4188.00
2019-05-28T10:12:50.714Z,3924.00
2019-05-28T10:13:50.636Z,3592.00
2019-05-28T10:14:50.565Z,2928.00
2019-05-28T10:15:50.486Z,2380.00
2019-05-28T10:16:50.410Z,1836.00
2019-05-28T10:17:50.336Z,1488.00
2019-05-28T10:18:50.261Z,1484.00
2019-05-28T10:19:50.186Z,1472.00
2019-05-28T10:20:50.112Z,1504.00
2019-05-28T10:21:50.036Z,1580.00
2019-05-28T10:22:49.962Z,1748.00
2019-05-28T10:23:49.882Z,2144.00
2019-05-28T10:24:49.808Z,2504.00
2019-05-28T10:25:49.730Z,2728.00
2019-05-28T10:26:49.655Z,3048.00
2019-05-28T10:28:01.006Z,3368.00
2019-05-28T10:28:50.591Z,3604.00
2019-05-28T10:29:49.426Z,3776.00
2019-05-28T10:30:49.364Z,3880.00
2019-05-28T10:31:49.276Z,3792.00
2019-05-28T10:32:49.200Z,4132.00
2019-05-28T10:33:49.121Z,5148.00
2019-05-28T10:35:03.410Z,5912.00
2019-05-28T10:35:48.972Z,6088.00
2019-05-28T10:36:48.900Z,6416.00
2019-05-28T10:37:48.818Z,6852.00
2019-05-28T10:38:48.746Z,7128.00
2019-05-28T10:39:48.672Z,7364.00
2019-05-28T10:40:48.593Z,7476.00
2019-05-28T10:41:48.517Z,7440.00
2019-05-28T10:42:48.444Z,7324.00
2019-05-28T10:43:48.372Z,7252.00
2019-05-28T10:44:48.289Z,7104.00
2019-05-28T10:45:48.217Z,6992.00
2019-05-28T10:46:48.143Z,7132.00
2019-05-28T10:47:48.078Z,7272.00
2019-05-28T10:48:47.987Z,7468.00
2019-05-28T10:49:50.810Z,7604.00
2019-05-28T10:50:47.836Z,7696.00
2019-05-28T10:51:47.761Z,7728.00
2019-05-28T10:52:47.684Z,8008.00
2019-05-28T10:53:47.606Z,8188.00
2019-05-28T10:54:47.552Z,8368.00
2019-05-28T10:55:47.459Z,8520.00
2019-05-28T10:56:47.384Z,8364.00
2019-05-28T10:57:47.307Z,7664.00
2019-05-28T10:58:47.234Z,6556.00
2019-05-28T10:59:47.155Z,5508.00
2019-05-28T11:00:47.082Z,4876.00
2019-05-28T11:01:47.006Z,4448.00
2019-05-28T11:02:46.953Z,3904.00
2019-05-28T11:03:47.331Z,3152.00
2019-05-28T11:04:46.806Z,2588.00
2019-05-28T11:05:46.705Z,2404.00
2019-05-28T11:06:51.951Z,2132.00
2019-05-28T11:07:46.553Z,1944.00
2019-05-28T11:08:46.482Z,1908.00
2019-05-28T11:09:46.403Z,1948.00
2019-05-28T11:10:46.327Z,2024.00
2019-05-28T11:11:46.251Z,2340.00
2019-05-28T11:12:46.180Z,2832.00
2019-05-28T11:13:53.152Z,3428.00
2019-05-28T11:14:46.026Z,4108.00
2019-05-28T11:15:45.955Z,4772.00
2019-05-28T11:16:45.872Z,5468.00
2019-05-28T11:17:45.842Z,6192.00
2019-05-28T11:18:45.732Z,6864.00
2019-05-28T11:19:45.650Z,7548.00
2019-05-28T11:20:45.588Z,8176.00
2019-05-28T11:21:45.494Z,8824.00
2019-05-28T11:22:45.447Z,9468.00
2019-05-28T11:23:45.345Z,10100.00
2019-05-28T11:24:45.269Z,10468.00
2019-05-28T11:25:45.191Z,10960.00
2019-05-28T11:26:45.118Z,11300.00
2019-05-28T11:27:45.042Z,11496.00
2019-05-28T11:28:44.968Z,11624.00
2019-05-28T11:29:44.891Z,11768.00
2019-05-28T11:30:44.816Z,11868.00
2019-05-28T11:31:44.743Z,11744.00
2019-05-28T11:32:46.302Z,11596.00
2019-05-28T11:33:44.590Z,11752.00
2019-05-28T11:34:44.564Z,11520.00
2019-05-28T11:35:44.442Z,11232.00
2019-05-28T11:36:44.369Z,11112.00
2019-05-28T11:37:44.292Z,11096.00
2019-05-28T11:38:44.219Z,11108.00
2019-05-28T11:39:44.143Z,11164.00
2019-05-28T11:40:44.074Z,11248.00
2019-05-28T11:41:43.997Z,11404.00
2019-05-28T11:42:43.917Z,11556.00
2019-05-28T11:43:43.849Z,11696.00
2019-05-28T11:44:43.769Z,11868.00
2019-05-28T11:45:43.695Z,12092.00
2019-05-28T11:46:43.623Z,12320.00
2019-05-28T11:47:43.557Z,12724.00
2019-05-28T11:48:43.475Z,12812.00
2019-05-28T11:49:43.400Z,12784.00
2019-05-28T11:50:43.328Z,12792.00
2019-05-28T11:51:43.267Z,12872.00
2019-05-28T11:52:43.321Z,13032.00
2019-05-28T11:53:43.105Z,13000.00
2019-05-28T11:54:43.032Z,12816.00
2019-05-28T11:55:42.961Z,12696.00
2019-05-28T11:56:42.884Z,12608.00
2019-05-28T11:57:42.809Z,12520.00
2019-05-28T11:58:42.738Z,12784.00
2019-05-28T11:59:42.660Z,13092.00
2019-05-28T12:00:42.589Z,13172.00
2019-05-28T12:01:42.518Z,13296.00
2019-05-28T12:02:42.462Z,13420.00
2019-05-28T12:03:42.370Z,13704.00
2019-05-28T12:04:42.296Z,13740.00
2019-05-28T12:05:42.221Z,14028.00
2019-05-28T12:06:42.150Z,15320.00
2019-05-28T12:07:42.077Z,16516.00
2019-05-28T12:08:42.004Z,16992.00
2019-05-28T12:09:41.950Z,16352.00
2019-05-28T12:10:41.855Z,15544.00
2019-05-28T12:11:41.782Z,15208.00
2019-05-28T12:12:41.710Z,14204.00
2019-05-28T12:13:41.641Z,13408.00
2019-05-28T12:14:41.565Z,10268.00
2019-05-28T12:15:41.489Z,9688.00
2019-05-28T12:16:41.417Z,12676.00
2019-05-28T12:17:44.599Z,11824.00
2019-05-28T12:18:41.272Z,10556.00
2019-05-28T12:19:41.201Z,9728.00
2019-05-28T12:20:41.137Z,8916.00
2019-05-28T12:21:41.057Z,7784.00
2019-05-28T12:22:40.980Z,7964.00
2019-05-28T12:23:40.913Z,9664.00
2019-05-28T12:24:40.837Z,9728.00
2019-05-28T12:25:40.763Z,9580.00
2019-05-28T12:26:40.820Z,9396.00